createdAt,value
2022-09-18T07:47:06.398Z,73.68
2022-09-18T07:56:46.571Z,73.47
2022-09-18T07:59:04.265Z,73.37
2022-09-18T08:00:17.265Z,73.38
2022-09-18T08:02:56.345Z,73.49
2022-09-18T08:06:25.770Z,73.65
2022-09-18T08:09:58.702Z,73.64
2022-09-18T08:17:02.560Z,73.75
2022-09-18T08:20:58.417Z,73.67
2022-09-18T08:23:51.410Z,73.36
2022-09-18T08:29:55.981Z,73.42
2022-09-18T08:30:02.222Z,73.37
2022-09-18T08:32:32.547Z,73.42
2022-09-18T08:35:03.072Z,73.60
2022-09-18T08:37:36.530Z,73.68
2022-09-18T08:40:43.595Z,73.57
2022-09-18T08:44:32.883Z,73.45
2022-09-18T08:47:27.566Z,73.72
2022-09-18T09:18:51.334Z,73.58
2022-09-18T18:03:37.046Z,71.90
2022-09-18T18:06:26.833Z,71.84
2022-09-18T18:09:19.806Z,71.77
2022-09-18T20:25:26.187Z,71.74
2022-09-18T20:27:58.011Z,71.70
2022-09-18T20:30:30.010Z,71.83
2022-09-18T20:33:02.121Z,71.99
2022-09-18T20:35:38.474Z,72.28
2022-09-18T20:38:11.844Z,72.42
2022-09-18T20:40:44.197Z,72.56
2022-09-18T20:43:18.006Z,72.66
2022-09-18T20:45:58.651Z,72.71
2022-09-18T20:48:38.607Z,72.60
2022-09-18T20:51:12.516Z,72.60
2022-09-18T20:53:46.559Z,72.66
2022-09-18T20:56:21.788Z,72.63
2022-09-18T20:58:54.667Z,72.84
2022-09-18T21:01:28.962Z,72.73
2022-09-18T21:04:02.312Z,72.76
2022-09-18T21:06:35.287Z,72.83
2022-09-18T21:09:10.356Z,72.61
2022-09-18T21:11:44.897Z,72.70
2022-09-18T21:14:18.057Z,72.69
2022-09-18T21:16:50.251Z,72.76
2022-09-18T21:19:26.345Z,72.85
2022-09-18T21:21:58.453Z,72.98
2022-09-18T21:24:30.850Z,72.94
2022-09-18T21:27:02.786Z,72.87
2022-09-18T21:29:34.692Z,72.82
2022-09-18T21:32:06.996Z,72.87
2022-09-18T21:34:40.453Z,72.91
2022-09-18T21:37:13.733Z,73.03
2022-09-18T21:39:45.690Z,72.93
2022-09-18T21:42:17.776Z,73.18
2022-09-18T21:44:49.841Z,73.16
2022-09-18T21:47:21.740Z,73.30
2022-09-18T21:49:53.680Z,73.18
2022-09-18T21:52:25.555Z,73.18
2022-09-18T21:54:57.503Z,72.95
2022-09-18T21:57:30.503Z,73.28
2022-09-18T22:00:02.595Z,73.20
2022-09-18T22:02:43.421Z,73.34
2022-09-18T22:05:16.225Z,73.49
2022-09-18T22:07:48.295Z,73.30
2022-09-18T22:10:20.783Z,73.29
2022-09-18T22:12:53.702Z,73.39
2022-09-18T22:15:25.666Z,73.39
2022-09-18T22:17:57.819Z,73.52
2022-09-18T22:20:29.748Z,73.51
2022-09-18T22:23:01.541Z,73.68
2022-09-18T22:25:34.595Z,73.59
2022-09-18T22:28:06.593Z,73.66
2022-09-18T22:30:40.704Z,73.82
2022-09-18T22:33:12.574Z,73.61
2022-09-18T22:35:44.472Z,73.55
2022-09-18T22:38:16.422Z,73.81
2022-09-18T22:40:48.318Z,73.81
2022-09-18T22:43:20.512Z,73.74
2022-09-18T22:45:52.409Z,73.95
2022-09-18T22:48:24.190Z,74.01
2022-09-18T22:50:56.126Z,74.16
2022-09-18T22:53:28.449Z,74.07
2022-09-18T22:56:05.907Z,73.88
2022-09-18T22:58:38.513Z,73.81
2022-09-18T23:01:12.780Z,73.98
2022-09-18T23:03:45.198Z,73.99
2022-09-18T23:06:18.096Z,74.00
2022-09-18T23:08:50.405Z,74.13
2022-09-18T23:11:24.785Z,74.27
2022-09-18T23:13:58.035Z,74.30
2022-09-18T23:16:31.703Z,74.28
2022-09-18T23:19:05.429Z,74.14
2022-09-18T23:21:39.343Z,74.19
2022-09-18T23:24:12.456Z,74.08
2022-09-18T23:26:46.205Z,74.16
2022-09-18T23:29:20.961Z,74.25
2022-09-18T23:31:55.280Z,74.45
2022-09-18T23:34:28.833Z,74.61
2022-09-18T23:37:01.660Z,74.53
2022-09-18T23:39:35.199Z,74.39
2022-09-18T23:42:08.987Z,74.44
2022-09-18T23:44:40.794Z,74.43
2022-09-18T23:47:12.653Z,74.31
2022-09-18T23:49:44.435Z,74.35
2022-09-18T23:52:16.623Z,74.69
2022-09-18T23:54:48.447Z,74.55
2022-09-18T23:57:22.665Z,74.76
2022-09-18T23:59:56.839Z,74.74
